Time;durP1;ratioP1;P1;durP2;ratioP2;P2;SDS_P1;SDS_P2;PMS_P1;PMS_P2;Temp;Humidity;BMP_temperature;BMP_pressure;BME280_temperature;BME280_humidity;BME280_pressure;Samples;Min_cycle;Max_cycle;Signal;HPM_P1;HPM_P2
2023/12/13 00:01:41;;;;;;;1.88;0.90;;;;;;;18.98;46.17;99571.25;5069718;28;20123;-69
2023/12/13 00:04:06;;;;;;;2.55;0.77;;;;;;;18.85;46.33;99548.78;5068044;28;20035;-68
2023/12/13 00:06:32;;;;;;;2.83;1.00;;;;;;;18.93;46.08;99569.09;5050557;28;20358;-69
2023/12/13 00:08:57;;;;;;;2.28;0.93;;;;;;;18.95;45.89;99569.75;5070093;28;20289;-71
2023/12/13 00:11:22;;;;;;;2.78;0.90;;;;;;;18.94;46.14;99562.81;5069493;28;20033;-69
2023/12/13 00:13:48;;;;;;;2.70;0.90;;;;;;;18.80;45.90;99545.75;5069361;28;20119;-71
2023/12/13 00:16:13;;;;;;;2.35;0.93;;;;;;;18.89;45.74;99554.53;5069575;28;20020;-69
2023/12/13 00:18:39;;;;;;;3.25;1.00;;;;;;;18.81;45.92;99544.75;5069286;28;20051;-70
2023/12/13 00:21:05;;;;;;;3.17;0.88;;;;;;;18.78;45.97;99539.78;5069685;28;20492;-70
2023/12/13 00:23:30;;;;;;;2.45;0.98;;;;;;;18.89;46.13;99559.81;5069269;28;20071;-72
2023/12/13 00:25:55;;;;;;;2.00;0.80;;;;;;;18.79;46.00;99548.56;5069709;28;20024;-71
2023/12/13 00:28:20;;;;;;;2.10;0.90;;;;;;;18.78;45.92;99547.72;5069270;28;20052;-71
2023/12/13 00:30:46;;;;;;;1.88;0.82;;;;;;;18.87;45.79;99566.25;5069566;28;20063;-70
2023/12/13 00:33:11;;;;;;;1.85;1.00;;;;;;;18.77;45.91;99555.78;5069823;28;20516;-70
2023/12/13 00:35:37;;;;;;;2.55;0.90;;;;;;;18.85;45.73;99567.25;5050641;28;20027;-72
2023/12/13 00:38:03;;;;;;;2.50;0.95;;;;;;;18.75;45.92;99541.94;5069230;28;20046;-70
2023/12/13 00:40:29;;;;;;;2.47;0.90;;;;;;;18.77;45.77;99553.16;5069171;28;20388;-69
2023/12/13 00:42:55;;;;;;;2.78;1.00;;;;;;;18.75;45.62;99540.13;5069571;28;20032;-70
2023/12/13 00:45:21;;;;;;;2.63;1.13;;;;;;;18.82;45.95;99561.44;5069204;28;20025;-72
2023/12/13 00:47:46;;;;;;;2.72;1.00;;;;;;;18.81;45.93;99554.50;5068884;28;20059;-71
2023/12/13 00:50:12;;;;;;;2.42;1.00;;;;;;;18.79;45.95;99556.47;5068733;28;20032;-72
2023/12/13 00:52:38;;;;;;;3.60;1.25;;;;;;;18.77;45.64;99554.00;5069305;28;20060;-71
2023/12/13 00:55:04;;;;;;;1.83;0.90;;;;;;;18.77;45.89;99558.44;5070523;28;20098;-71
2023/12/13 00:57:32;;;;;;;2.40;0.80;;;;;;;18.76;45.93;99552.34;5070578;28;20028;-71
2023/12/13 00:59:58;;;;;;;4.20;0.90;;;;;;;18.74;45.91;99545.56;5070491;28;20063;-71
2023/12/13 01:02:24;;;;;;;2.40;0.85;;;;;;;18.77;45.72;99550.50;5071025;28;20070;-72
2023/12/13 01:04:49;;;;;;;2.78;0.95;;;;;;;18.66;45.70;99530.53;5071232;28;20021;-72
2023/12/13 01:07:15;;;;;;;2.90;0.98;;;;;;;18.72;45.79;99545.72;5070593;28;20132;-71
2023/12/13 01:09:40;;;;;;;2.10;0.83;;;;;;;18.66;45.69;99527.91;5071155;28;20028;-72
2023/12/13 01:12:06;;;;;;;2.33;0.90;;;;;;;18.72;45.84;99548.34;5070745;28;20254;-70
2023/12/13 01:14:32;;;;;;;2.40;0.98;;;;;;;18.70;45.69;99539.78;5070231;28;20147;-72
2023/12/13 01:16:58;;;;;;;2.45;0.80;;;;;;;18.67;45.69;99529.53;5070011;28;20036;-71
2023/12/13 01:19:24;;;;;;;2.55;0.82;;;;;;;18.65;45.51;99531.53;5068562;28;20032;-70
2023/12/13 01:21:49;;;;;;;1.98;0.77;;;;;;;18.68;45.69;99545.22;5067010;28;20063;-70
2023/12/13 01:24:15;;;;;;;3.08;0.80;;;;;;;18.62;45.86;99537.13;5066821;28;20457;-70
2023/12/13 01:26:40;;;;;;;2.45;0.80;;;;;;;18.58;45.67;99531.34;5067223;28;20098;-69
2023/12/13 01:29:06;;;;;;;2.00;0.80;;;;;;;18.65;45.47;99544.72;5067054;28;20071;-71
2023/12/13 01:31:31;;;;;;;2.63;0.90;;;;;;;18.60;45.81;99528.53;5067399;28;20071;-69
2023/12/13 01:33:56;;;;;;;1.63;0.70;;;;;;;18.57;45.74;99521.75;5049197;28;20064;-70
2023/12/13 01:36:22;;;;;;;3.15;1.00;;;;;;;18.58;45.58;99530.50;5067126;28;20040;-70
2023/12/13 01:38:47;;;;;;;2.55;0.82;;;;;;;18.63;45.66;99530.84;5067383;28;20441;-71
2023/12/13 01:41:13;;;;;;;2.80;0.80;;;;;;;18.54;45.49;99521.25;5067504;28;20040;-72
2023/12/13 01:43:38;;;;;;;4.88;0.93;;;;;;;18.58;45.90;99533.97;5066751;28;20070;-70
2023/12/13 01:46:04;;;;;;;2.70;0.80;;;;;;;18.58;45.70;99535.75;5066787;28;20143;-71
2023/12/13 01:48:29;;;;;;;4.63;1.30;;;;;;;18.59;45.57;99532.97;5067256;28;20068;-71
2023/12/13 01:50:55;;;;;;;2.60;0.80;;;;;;;18.52;45.46;99534.59;5066628;28;20878;-71
2023/12/13 01:53:24;;;;;;;2.55;0.70;;;;;;;18.56;45.56;99541.19;5066637;28;20406;-69
2023/12/13 01:55:50;;;;;;;1.65;0.70;;;;;;;18.60;45.68;99547.00;5066407;28;20056;-70
2023/12/13 01:58:17;;;;;;;1.58;0.70;;;;;;;18.54;45.49;99537.91;5066568;28;20384;-71
2023/12/13 02:00:44;;;;;;;2.65;0.95;;;;;;;18.59;45.61;99547.97;5066579;28;20526;-71
2023/12/13 02:03:11;;;;;;;3.35;1.02;;;;;;;18.52;45.70;99536.41;5064837;28;20062;-70
2023/12/13 02:05:38;;;;;;;2.80;0.90;;;;;;;18.52;45.82;99537.25;5066968;28;21058;-71
2023/12/13 02:08:04;;;;;;;3.38;1.10;;;;;;;18.59;45.71;99554.06;5066720;28;20032;-70
2023/12/13 02:10:29;;;;;;;3.30;0.80;;;;;;;18.59;45.80;99559.34;5066756;28;20488;-71
2023/12/13 02:12:54;;;;;;;3.05;1.00;;;;;;;18.49;45.79;99534.91;5066826;28;20032;-70
2023/12/13 02:15:21;;;;;;;4.07;0.95;;;;;;;18.51;45.59;99540.84;5065917;28;20475;-71
2023/12/13 02:17:52;;;;;;;3.15;0.90;;;;;;;18.58;45.77;99556.88;5066227;28;20036;-71
2023/12/13 02:20:19;;;;;;;2.72;0.90;;;;;;;18.56;45.45;99553.56;5066370;28;20033;-71
2023/12/13 02:22:44;;;;;;;4.03;1.05;;;;;;;18.53;45.56;99541.50;5066174;28;20040;-71
2023/12/13 02:25:21;;;;;;;2.45;0.90;;;;;;;18.47;45.50;99527.16;5066356;28;20037;-71
2023/12/13 02:27:46;;;;;;;2.38;0.80;;;;;;;18.44;45.41;99524.03;5065978;28;20036;-72
2023/12/13 02:30:12;;;;;;;3.00;0.85;;;;;;;18.44;45.54;99524.84;5066343;28;20032;-69
2023/12/13 02:32:38;;;;;;;2.13;0.77;;;;;;;18.54;45.69;99535.25;5066380;28;20029;-69
2023/12/13 02:35:04;;;;;;;1.95;0.77;;;;;;;18.48;45.44;99525.34;5066370;28;20028;-71
2023/12/13 02:37:29;;;;;;;1.83;0.80;;;;;;;18.45;45.46;99518.59;5066522;28;20028;-70
2023/12/13 02:39:56;;;;;;;4.25;1.00;;;;;;;18.46;45.60;99522.88;5066274;28;20070;-71
2023/12/13 02:42:22;;;;;;;3.13;0.90;;;;;;;18.53;45.40;99536.25;5066062;28;20033;-70
2023/12/13 02:44:47;;;;;;;2.20;0.82;;;;;;;18.43;45.54;99519.72;5066440;28;20377;-69
2023/12/13 02:47:13;;;;;;;3.55;0.80;;;;;;;18.51;45.51;99534.75;5065812;28;20051;-71
2023/12/13 02:49:38;;;;;;;3.13;0.80;;;;;;;18.45;45.45;99521.22;5066061;28;20158;-71
2023/12/13 02:52:04;;;;;;;2.58;0.90;;;;;;;18.42;45.49;99515.41;5066205;28;20522;-71
2023/12/13 02:54:30;;;;;;;3.15;1.00;;;;;;;18.39;45.78;99515.75;5066510;28;20491;-70
2023/12/13 02:56:55;;;;;;;2.90;0.80;;;;;;;18.40;45.46;99509.50;5066218;28;20024;-70
2023/12/13 02:59:20;;;;;;;2.80;0.90;;;;;;;18.46;45.46;99524.69;5066309;28;20060;-70
2023/12/13 03:01:46;;;;;;;3.05;0.80;;;;;;;18.38;45.57;99514.91;5065448;28;20284;-70
2023/12/13 03:04:11;;;;;;;3.03;1.20;;;;;;;18.47;45.37;99526.34;5065280;28;20037;-70
2023/12/13 03:06:36;;;;;;;3.65;0.80;;;;;;;18.42;45.40;99523.34;5065670;28;20078;-71
2023/12/13 03:09:02;;;;;;;4.00;0.97;;;;;;;18.44;45.46;99527.47;5047692;28;20119;-70
2023/12/13 03:11:28;;;;;;;3.85;1.17;;;;;;;18.45;45.62;99534.41;5066134;28;20288;-69
2023/12/13 03:13:53;;;;;;;3.80;0.88;;;;;;;18.41;45.65;99514.59;5066993;28;20123;-71
2023/12/13 03:16:18;;;;;;;2.13;0.80;;;;;;;18.43;45.82;99520.53;5069855;28;20118;-71
2023/12/13 03:18:44;;;;;;;2.17;0.70;;;;;;;18.34;45.52;99508.31;5070124;28;20261;-71
2023/12/13 03:21:09;;;;;;;3.00;1.02;;;;;;;18.44;45.62;99521.38;5069953;28;20025;-69
2023/12/13 03:23:34;;;;;;;2.10;0.70;;;;;;;18.33;45.53;99517.22;5069732;28;20374;-70
2023/12/13 03:25:59;;;;;;;3.70;1.20;;;;;;;18.42;45.64;99525.97;5070145;28;20384;-71
2023/12/13 03:28:25;;;;;;;1.92;0.85;;;;;;;18.41;45.66;99519.06;5069799;28;21345;-69
2023/12/13 03:30:50;;;;;;;1.83;0.70;;;;;;;18.30;45.62;99499.88;5069616;28;20483;-71
2023/12/13 03:33:16;;;;;;;3.75;1.00;;;;;;;18.41;45.55;99521.69;5069466;28;20036;-69
2023/12/13 03:35:41;;;;;;;3.13;0.80;;;;;;;18.31;45.72;99500.72;5069603;28;20107;-70
2023/12/13 03:38:06;;;;;;;2.30;0.85;;;;;;;18.37;45.69;99512.44;5069702;28;20261;-70
2023/12/13 03:40:32;;;;;;;3.08;0.88;;;;;;;18.38;45.72;99512.28;5069641;28;20028;-71
2023/12/13 03:42:58;;;;;;;2.95;0.93;;;;;;;18.32;45.65;99502.34;5069394;28;20502;-69
2023/12/13 03:45:24;;;;;;;3.90;1.00;;;;;;;18.39;45.58;99513.09;5069222;28;20035;-69
2023/12/13 03:47:49;;;;;;;2.42;0.80;;;;;;;18.30;45.68;99497.25;5068474;28;20036;-71
2023/12/13 03:50:15;;;;;;;3.05;0.80;;;;;;;18.26;45.73;99495.94;5069127;28;20044;-71
2023/12/13 03:52:40;;;;;;;1.75;0.70;;;;;;;18.38;45.43;99509.66;5069092;28;20032;-70
2023/12/13 03:55:06;;;;;;;3.45;0.95;;;;;;;18.26;45.77;99490.66;5069065;28;20028;-71
2023/12/13 03:57:32;;;;;;;3.60;1.10;;;;;;;18.30;45.52;99494.59;5068862;28;20370;-71
2023/12/13 03:59:57;;;;;;;3.10;0.90;;;;;;;18.35;45.48;99504.69;5068764;28;20035;-70
2023/12/13 04:02:22;;;;;;;4.03;0.90;;;;;;;18.36;45.69;99495.78;5068245;28;20036;-71
2023/12/13 04:04:47;;;;;;;2.97;0.98;;;;;;;18.36;45.66;99506.34;5068576;28;20102;-71
2023/12/13 04:07:13;;;;;;;3.15;1.02;;;;;;;18.29;45.78;99489.50;5068815;28;20032;-69
2023/12/13 04:09:38;;;;;;;3.25;0.82;;;;;;;18.33;45.81;99504.03;5069354;28;20033;-70
2023/12/13 04:12:04;;;;;;;3.45;1.13;;;;;;;18.33;45.56;99496.13;5068953;28;20025;-70
2023/12/13 04:14:29;;;;;;;4.30;1.00;;;;;;;18.25;45.37;99481.06;5068591;28;20513;-70
2023/12/13 04:16:54;;;;;;;3.38;0.90;;;;;;;18.32;45.71;99497.09;5068860;28;20431;-71
2023/12/13 04:19:20;;;;;;;3.58;1.27;;;;;;;18.31;45.52;99498.09;5069046;28;20123;-69
2023/12/13 04:21:45;;;;;;;4.33;1.30;;;;;;;18.33;45.50;99498.75;5068972;28;20035;-69
2023/12/13 04:24:11;;;;;;;4.22;1.42;;;;;;;18.30;45.48;99499.88;5067918;28;21013;-71
2023/12/13 04:26:36;;;;;;;3.25;1.02;;;;;;;18.23;45.67;99487.47;5068600;28;20032;-71
2023/12/13 04:29:01;;;;;;;4.05;1.00;;;;;;;18.23;45.61;99487.47;5068627;28;20388;-71
2023/12/13 04:31:27;;;;;;;2.83;1.20;;;;;;;18.24;45.82;99483.88;5068678;28;20074;-70
2023/12/13 04:33:52;;;;;;;5.10;1.30;;;;;;;18.31;45.62;99503.38;5068673;28;20082;-70
2023/12/13 04:36:17;;;;;;;2.90;0.90;;;;;;;18.24;45.56;99483.88;5068860;28;21107;-71
2023/12/13 04:38:43;;;;;;;3.75;1.13;;;;;;;18.23;45.75;99483.06;5068360;28;20035;-70
2023/12/13 04:41:08;;;;;;;3.75;0.88;;;;;;;18.27;45.86;99486.19;5068902;28;20024;-70
2023/12/13 04:43:33;;;;;;;3.22;1.00;;;;;;;18.25;45.51;99482.91;5067764;28;20040;-71
2023/12/13 04:45:58;;;;;;;3.40;1.02;;;;;;;18.27;45.58;99494.91;5068046;28;20087;-69
2023/12/13 04:48:24;;;;;;;3.93;1.17;;;;;;;18.21;45.70;99476.28;5068238;28;20028;-70
2023/12/13 04:50:49;;;;;;;4.00;0.90;;;;;;;18.29;45.77;99490.34;5067869;28;20352;-71
2023/12/13 04:53:14;;;;;;;2.53;0.98;;;;;;;18.20;45.55;99479.88;5067536;28;20461;-71
2023/12/13 04:55:40;;;;;;;6.15;1.17;;;;;;;18.19;45.71;99476.44;5068113;28;20115;-71
2023/12/13 04:58:05;;;;;;;4.78;1.00;;;;;;;18.19;45.80;99476.44;5067655;28;20833;-69
2023/12/13 05:00:30;;;;;;;5.05;1.50;;;;;;;18.23;45.75;99488.31;5067478;28;20487;-70
2023/12/13 05:02:56;;;;;;;3.55;1.00;;;;;;;18.26;45.78;99485.38;5066457;28;20036;-70
2023/12/13 05:05:22;;;;;;;3.47;1.00;;;;;;;18.25;45.85;99489.00;5068066;28;20051;-69
2023/12/13 05:07:47;;;;;;;2.83;0.90;;;;;;;18.19;45.56;99478.25;5067635;28;20457;-71
2023/12/13 05:10:14;;;;;;;5.13;1.08;;;;;;;18.16;45.94;99468.84;5065741;28;20074;-71
2023/12/13 05:12:39;;;;;;;2.30;0.70;;;;;;;18.27;45.63;99491.47;5067971;28;20039;-70
2023/12/13 05:15:05;;;;;;;3.83;0.80;;;;;;;18.25;45.74;99483.72;5066721;28;20028;-70
2023/12/13 05:17:30;;;;;;;3.42;1.23;;;;;;;18.27;45.65;99480.91;5067712;28;20028;-71
2023/12/13 05:19:55;;;;;;;2.72;0.90;;;;;;;18.25;45.94;99485.53;5067771;28;20028;-69
2023/12/13 05:22:21;;;;;;;4.55;1.00;;;;;;;18.16;45.51;99458.28;5049344;28;20056;-69
2023/12/13 05:24:46;;;;;;;4.33;1.23;;;;;;;18.25;45.66;99481.06;5067668;28;20040;-69
2023/12/13 05:27:11;;;;;;;3.80;0.95;;;;;;;18.22;45.68;99472.66;5067285;28;20310;-71
2023/12/13 05:29:37;;;;;;;3.72;1.13;;;;;;;18.16;45.72;99465.38;5067482;28;20029;-69
2023/12/13 05:32:02;;;;;;;3.73;0.90;;;;;;;18.13;46.02;99463.88;5067732;28;20467;-69
2023/12/13 05:34:27;;;;;;;3.60;1.00;;;;;;;18.24;45.63;99483.88;5067240;28;20300;-71
2023/12/13 05:36:53;;;;;;;3.63;1.10;;;;;;;18.15;45.68;99466.34;5066802;28;20345;-70
2023/12/13 05:39:18;;;;;;;3.90;1.00;;;;;;;17.93;45.80;99437.75;5067523;28;20269;-69
2023/12/13 05:41:43;;;;;;;5.68;1.38;;;;;;;18.19;45.82;99473.78;5067134;28;20457;-71
2023/12/13 05:44:08;;;;;;;3.97;1.20;;;;;;;18.20;45.95;99483.38;5066720;28;20119;-69
2023/12/13 05:46:34;;;;;;;4.63;1.42;;;;;;;18.15;45.75;99466.34;5066998;28;20051;-70
2023/12/13 05:49:05;;;;;;;4.05;1.30;;;;;;;18.14;45.93;99476.09;5067213;28;20120;-70
2023/12/13 05:51:30;;;;;;;2.95;0.88;;;;;;;18.18;45.84;99472.13;5066633;28;20028;-71
2023/12/13 05:53:56;;;;;;;4.10;1.40;;;;;;;18.13;45.97;99466.50;5066669;28;20043;-70
2023/12/13 05:56:23;;;;;;;3.40;1.20;;;;;;;18.19;45.61;99475.63;5066551;28;20033;-70
2023/12/13 05:58:48;;;;;;;4.38;1.30;;;;;;;18.19;45.78;99479.06;5066498;28;20060;-69
2023/12/13 06:01:14;;;;;;;4.07;1.20;;;;;;;18.19;45.71;99483.53;5067025;28;20110;-70
2023/12/13 06:03:40;;;;;;;4.20;1.33;;;;;;;18.12;45.68;99478.06;5065567;28;20044;-71
2023/12/13 06:06:06;;;;;;;4.80;1.10;;;;;;;18.12;45.82;99475.44;5066760;28;20025;-70
2023/12/13 06:08:32;;;;;;;3.55;1.20;;;;;;;18.10;45.92;99470.31;5066666;28;20036;-71
2023/12/13 06:10:58;;;;;;;4.07;1.33;;;;;;;17.93;45.80;99439.56;5067132;28;20037;-69
2023/12/13 06:13:23;;;;;;;4.75;1.02;;;;;;;18.18;45.73;99482.69;5066602;28;20028;-71
2023/12/13 06:15:48;;;;;;;3.35;1.00;;;;;;;18.18;45.86;99482.69;5066852;28;20032;-70
2023/12/13 06:18:14;;;;;;;4.13;1.10;;;;;;;18.11;45.97;99473.75;5067135;28;20033;-70
2023/12/13 06:20:39;;;;;;;3.92;1.00;;;;;;;18.18;45.79;99490.59;5066369;28;20032;-69
2023/12/13 06:23:04;;;;;;;4.50;0.90;;;;;;;18.21;45.67;99490.28;5063939;28;20032;-69
2023/12/13 06:25:29;;;;;;;4.38;1.23;;;;;;;18.12;45.97;99475.44;5066298;28;20749;-71
2023/12/13 06:27:55;;;;;;;3.47;1.10;;;;;;;18.18;45.52;99484.50;5066070;28;20028;-70
2023/12/13 06:30:21;;;;;;;3.55;0.95;;;;;;;18.21;45.56;99486.81;5066516;28;20265;-71
2023/12/13 06:32:46;;;;;;;3.88;0.90;;;;;;;18.22;45.73;99486.66;5065653;28;20036;-71
2023/12/13 06:35:13;;;;;;;3.88;1.10;;;;;;;18.26;45.73;99490.66;5066007;28;20032;-70
2023/12/13 06:37:39;;;;;;;4.47;0.93;;;;;;;18.23;45.54;99490.97;5065519;28;20032;-71
2023/12/13 06:40:05;;;;;;;3.72;0.93;;;;;;;18.28;45.95;99486.03;5065848;28;20038;-70
2023/12/13 06:42:30;;;;;;;3.95;1.15;;;;;;;18.28;45.92;99487.84;5065483;28;20115;-71
2023/12/13 06:44:55;;;;;;;2.60;0.80;;;;;;;18.40;45.76;99498.94;5065960;28;20124;-71
2023/12/13 06:47:21;;;;;;;2.45;0.80;;;;;;;18.39;45.83;99499.91;5047105;28;20292;-71
2023/12/13 06:49:46;;;;;;;4.75;1.52;;;;;;;18.45;45.93;99505.41;5065941;28;20066;-72
2023/12/13 06:52:11;;;;;;;2.78;0.75;;;;;;;18.46;45.69;99495.66;5066399;28;20044;-71
2023/12/13 06:54:37;;;;;;;3.83;0.80;;;;;;;18.45;46.18;99500.13;5066231;28;20033;-70
2023/12/13 06:57:03;;;;;;;4.70;1.00;;;;;;;18.49;46.07;99498.81;5066376;28;20296;-71
2023/12/13 06:59:29;;;;;;;3.33;1.10;;;;;;;18.46;46.15;99490.38;5066044;28;20028;-71
2023/12/13 07:01:54;;;;;;;5.07;1.50;;;;;;;18.53;45.72;99501.94;5065079;28;20081;-70
2023/12/13 07:04:20;;;;;;;3.65;0.90;;;;;;;18.51;46.16;99492.56;5065297;28;20024;-71
2023/12/13 07:06:45;;;;;;;2.88;0.80;;;;;;;18.47;46.08;99490.22;5065828;28;20481;-70
2023/12/13 07:09:18;;;;;;;2.85;0.93;;;;;;;18.57;46.33;99507.75;5065373;28;20029;-72
2023/12/13 07:11:43;;;;;;;3.35;0.98;;;;;;;18.58;46.01;99504.09;5065706;28;20043;-70
2023/12/13 07:14:09;;;;;;;2.63;0.95;;;;;;;18.53;46.24;99501.94;5065498;28;20032;-71
2023/12/13 07:16:34;;;;;;;3.70;1.00;;;;;;;18.59;46.06;99505.75;5065786;28;20028;-71
2023/12/13 07:19:00;;;;;;;4.05;0.88;;;;;;;18.56;46.16;99506.09;5065385;28;20051;-69
2023/12/13 07:21:25;;;;;;;5.20;1.10;;;;;;;18.53;46.21;99498.47;5065876;28;20074;-70
2023/12/13 07:23:50;;;;;;;3.42;0.80;;;;;;;18.56;46.60;99501.63;5065745;28;20035;-70
2023/12/13 07:26:16;;;;;;;3.55;1.25;;;;;;;18.64;46.56;99514.03;5065958;28;20028;-71
2023/12/13 07:28:43;;;;;;;3.35;1.00;;;;;;;18.56;46.44;99498.16;5065670;28;20039;-72
2023/12/13 07:31:08;;;;;;;4.35;1.00;;;;;;;18.56;46.56;99498.16;5065347;28;20102;-72
2023/12/13 07:33:38;;;;;;;3.70;0.90;;;;;;;18.66;46.33;99514.72;5066533;28;20060;-70
2023/12/13 07:36:04;;;;;;;3.55;1.17;;;;;;;18.60;46.99;99505.59;5047894;28;20114;-70
2023/12/13 07:38:29;;;;;;;3.50;1.15;;;;;;;18.66;46.99;99510.25;5065651;28;20028;-71
2023/12/13 07:40:54;;;;;;;5.55;1.52;;;;;;;18.58;47.10;99502.31;5064599;28;20039;-71
2023/12/13 07:43:20;;;;;;;5.38;1.10;;;;;;;18.59;46.69;99503.13;5062949;28;20119;-71
2023/12/13 07:45:51;;;;;;;4.63;1.13;;;;;;;18.56;46.68;99490.25;5065708;28;20032;-70
2023/12/13 07:48:17;;;;;;;3.88;1.20;;;;;;;18.57;46.56;99495.38;5065117;28;20063;-70
2023/12/13 07:50:43;;;;;;;3.72;1.23;;;;;;;18.66;46.59;99517.34;5030587;28;20099;-71
2023/12/13 07:53:08;;;;;;;3.00;1.00;;;;;;;18.57;46.67;99500.66;5065469;28;20032;-71
2023/12/13 07:55:33;;;;;;;3.17;0.98;;;;;;;18.65;46.74;99516.50;5065585;28;20293;-70
2023/12/13 07:57:58;;;;;;;3.90;0.90;;;;;;;18.58;46.55;99504.94;5065255;28;20031;-71
2023/12/13 08:00:24;;;;;;;4.80;1.50;;;;;;;18.68;46.66;99515.38;5066539;28;20514;-70
2023/12/13 08:02:49;;;;;;;4.95;1.17;;;;;;;18.65;46.62;99518.31;5067880;28;20287;-69
2023/12/13 08:05:16;;;;;;;5.37;1.30;;;;;;;18.58;46.67;99504.09;5068461;28;20127;-70
2023/12/13 08:07:42;;;;;;;3.35;1.15;;;;;;;18.68;46.88;99520.66;5014131;28;20283;-70
2023/12/13 08:10:07;;;;;;;3.70;1.50;;;;;;;18.57;47.04;99500.66;5066232;28;20033;-70
2023/12/13 08:12:34;;;;;;;5.38;1.20;;;;;;;18.66;46.94;99515.53;5068638;28;20261;-69
2023/12/13 08:14:59;;;;;;;5.00;1.30;;;;;;;18.68;47.05;99524.09;5068655;28;20033;-69
2023/12/13 08:17:25;;;;;;;3.08;0.88;;;;;;;18.59;46.78;99505.75;5068712;28;20509;-69
2023/12/13 08:19:50;;;;;;;4.10;1.30;;;;;;;18.66;47.08;99520.81;5069012;28;20028;-69
2023/12/13 08:22:15;;;;;;;3.30;1.13;;;;;;;18.62;46.83;99513.38;5068819;28;20995;-69
2023/12/13 08:24:43;;;;;;;3.67;1.23;;;;;;;18.66;46.83;99525.25;5068331;28;20261;-70
2023/12/13 08:27:08;;;;;;;3.70;1.08;;;;;;;18.63;46.95;99523.75;5068554;28;20072;-70
2023/12/13 08:29:33;;;;;;;3.40;1.10;;;;;;;18.66;46.97;99527.91;5068803;28;20060;-70
2023/12/13 08:31:59;;;;;;;3.83;1.30;;;;;;;18.68;46.81;99533.84;5068759;28;20036;-69
2023/12/13 08:34:24;;;;;;;3.50;1.10;;;;;;;18.58;46.64;99528.69;5068600;28;20081;-69
2023/12/13 08:36:50;;;;;;;3.40;1.00;;;;;;;18.66;47.03;99546.38;5068825;28;20066;-69
2023/12/13 08:39:16;;;;;;;4.50;1.40;;;;;;;18.66;46.86;99543.72;5066674;28;20351;-70
2023/12/13 08:41:41;;;;;;;5.20;1.43;;;;;;;18.59;46.77;99532.16;5066124;28;20048;-69
2023/12/13 08:44:07;;;;;;;4.97;1.20;;;;;;;18.67;46.82;99548.84;5066759;28;20273;-70
2023/12/13 08:46:32;;;;;;;5.43;1.20;;;;;;;18.64;47.07;99543.91;5067829;28;20289;-71
2023/12/13 08:48:58;;;;;;;5.95;1.45;;;;;;;18.67;47.06;99554.13;5068372;28;20048;-71
2023/12/13 08:51:23;;;;;;;4.10;1.23;;;;;;;18.65;47.07;99542.88;5068300;28;20041;-70
2023/12/13 08:53:54;;;;;;;4.22;1.10;;;;;;;18.65;47.01;99547.34;5068164;28;20032;-70
2023/12/13 08:56:19;;;;;;;3.00;0.98;;;;;;;18.66;46.77;99547.19;5067969;28;20060;-70
2023/12/13 08:58:45;;;;;;;3.92;1.20;;;;;;;18.57;47.18;99532.31;5049792;28;20109;-70
2023/12/13 09:01:11;;;;;;;4.72;1.20;;;;;;;18.59;47.20;99542.72;5050505;28;20047;-69
2023/12/13 09:03:36;;;;;;;5.22;1.27;;;;;;;18.63;47.25;99547.50;5067234;28;20032;-70
2023/12/13 09:06:01;;;;;;;3.08;0.90;;;;;;;18.57;47.40;99539.41;5068106;28;20447;-69
2023/12/13 09:08:26;;;;;;;3.22;0.90;;;;;;;18.65;47.31;99548.16;5049821;28;20043;-70
2023/12/13 09:10:52;;;;;;;3.10;1.08;;;;;;;18.65;46.99;99555.25;5067915;28;20028;-69
2023/12/13 09:13:17;;;;;;;4.38;1.40;;;;;;;18.68;47.18;99562.88;5067900;28;20111;-70
2023/12/13 09:15:45;;;;;;;5.00;1.10;;;;;;;18.59;46.97;99548.81;5068234;28;20056;-70
2023/12/13 09:18:10;;;;;;;3.72;1.00;;;;;;;18.61;46.91;99554.75;5067716;28;21224;-71
2023/12/13 09:20:36;;;;;;;3.97;1.30;;;;;;;18.68;46.89;99573.44;5067304;28;20043;-71
2023/12/13 09:23:01;;;;;;;5.37;1.23;;;;;;;18.63;46.98;99560.69;5067404;28;20040;-69
2023/12/13 09:25:27;;;;;;;5.23;1.20;;;;;;;18.59;47.13;99548.81;5066920;28;20851;-70
2023/12/13 09:27:52;;;;;;;4.40;1.10;;;;;;;18.68;47.34;99576.06;5060886;28;20276;-72
2023/12/13 09:30:18;;;;;;;4.70;1.33;;;;;;;18.67;47.42;99575.25;5048584;28;20048;-73
2023/12/13 09:32:43;;;;;;;6.32;1.42;;;;;;;18.69;47.32;99575.06;5066571;28;20032;-73
2023/12/13 09:35:09;;;;;;;3.30;1.15;;;;;;;18.62;47.21;99568.78;5065773;28;20439;-71
2023/12/13 09:37:35;;;;;;;3.33;1.20;;;;;;;18.68;47.25;99574.25;5064478;28;20111;-71
2023/12/13 09:40:01;;;;;;;5.57;1.38;;;;;;;18.59;47.12;99566.44;5066928;28;20078;-70
2023/12/13 09:42:26;;;;;;;3.45;1.00;;;;;;;18.68;47.33;99582.16;5067480;28;20068;-71
2023/12/13 09:44:52;;;;;;;3.67;1.00;;;;;;;18.62;47.15;99574.06;5066427;28;20036;-70
2023/12/13 09:47:20;;;;;;;4.32;1.30;;;;;;;18.60;47.11;99576.03;5067217;28;20048;-70
2023/12/13 09:49:47;;;;;;;4.63;1.30;;;;;;;18.60;47.27;99568.94;5065714;28;20024;-71
2023/12/13 09:52:18;;;;;;;3.70;1.05;;;;;;;18.65;47.30;99585.13;5066749;28;20055;-71
2023/12/13 09:54:45;;;;;;;3.75;1.00;;;;;;;18.59;47.08;99575.19;5066391;28;20028;-71
2023/12/13 09:57:10;;;;;;;4.30;1.17;;;;;;;18.61;47.36;99585.59;5066685;28;20060;-70
2023/12/13 09:59:36;;;;;;;3.78;1.23;;;;;;;18.59;47.27;99582.28;5066384;28;20457;-71
2023/12/13 10:02:03;;;;;;;3.28;1.20;;;;;;;18.64;47.15;99591.41;5064848;28;20738;-71
2023/12/13 10:04:29;;;;;;;2.50;1.00;;;;;;;18.70;47.08;99608.38;5066441;28;20032;-71
2023/12/13 10:06:55;;;;;;;4.00;1.25;;;;;;;18.64;46.80;99601.94;5066628;28;20086;-71
2023/12/13 10:09:25;;;;;;;3.95;1.42;;;;;;;18.68;46.77;99610.38;5067195;28;20119;-71
2023/12/13 10:11:50;;;;;;;4.63;1.33;;;;;;;18.58;46.98;99594.66;5067001;28;20060;-71
2023/12/13 10:14:15;;;;;;;5.35;1.25;;;;;;;18.57;47.14;99594.81;5066601;28;20056;-71
2023/12/13 10:16:41;;;;;;;3.65;1.08;;;;;;;18.57;47.18;99592.19;5066566;28;20043;-71
2023/12/13 10:19:06;;;;;;;6.38;1.20;;;;;;;18.58;47.01;99602.56;5066689;28;20104;-71
2023/12/13 10:21:36;;;;;;;3.95;1.20;;;;;;;18.58;47.08;99599.94;5066672;28;20040;-70
2023/12/13 10:24:03;;;;;;;5.68;1.10;;;;;;;18.58;47.04;99602.56;5065876;28;20067;-70
2023/12/13 10:26:33;;;;;;;3.42;1.10;;;;;;;18.64;46.90;99619.56;5066217;28;20028;-70
2023/12/13 10:29:00;;;;;;;5.80;1.13;;;;;;;18.64;46.78;99620.41;5066768;28;20055;-70
2023/12/13 10:31:25;;;;;;;3.40;1.00;;;;;;;18.58;46.73;99602.56;5066547;28;20037;-72
2023/12/13 10:33:51;;;;;;;2.67;1.02;;;;;;;18.62;47.04;99609.19;5061824;28;20085;-73
2023/12/13 10:36:18;;;;;;;4.05;1.25;;;;;;;18.58;47.18;99599.09;5065852;28;20035;-70
2023/12/13 10:38:47;;;;;;;2.75;1.02;;;;;;;18.58;47.27;99607.84;5064592;28;20082;-70
2023/12/13 10:41:15;;;;;;;5.03;1.23;;;;;;;18.59;47.12;99601.56;5065656;28;20040;-70
2023/12/13 10:43:41;;;;;;;4.20;1.40;;;;;;;18.66;46.99;99620.25;5063226;28;20024;-70
2023/12/13 10:46:08;;;;;;;4.72;1.65;;;;;;;18.68;47.21;99624.38;5065153;28;20052;-71
2023/12/13 10:48:37;;;;;;;3.13;1.15;;;;;;;18.65;47.25;99610.69;5065194;28;20041;-71
2023/12/13 10:51:03;;;;;;;5.57;1.30;;;;;;;18.69;47.52;99614.66;5065097;28;20036;-72
2023/12/13 10:53:31;;;;;;;3.10;1.10;;;;;;;18.62;47.25;99598.63;5065157;28;20066;-73
2023/12/13 10:55:59;;;;;;;4.60;1.50;;;;;;;18.68;47.26;99618.28;5065143;28;20029;-73
2023/12/13 10:58:25;;;;;;;7.57;1.92;;;;;;;18.56;47.34;99595.78;5045619;28;20499;-73
2023/12/13 11:00:51;;;;;;;5.47;1.23;;;;;;;18.70;47.42;99615.50;5063668;28;20415;-73
2023/12/13 11:03:44;;;;;;;4.00;1.23;;;;;;;18.73;47.30;99620.44;5064214;28;20040;-71
2023/12/13 11:06:13;;;;;;;4.80;1.20;;;;;;;18.70;47.42;99613.66;5065244;28;20060;-71
2023/12/13 11:08:40;;;;;;;4.07;1.38;;;;;;;18.64;47.16;99609.88;5064628;28;20123;-73
2023/12/13 11:11:08;;;;;;;5.78;1.35;;;;;;;18.74;46.94;99632.66;5064318;28;20059;-73
2023/12/13 11:13:50;;;;;;;7.55;1.52;;;;;;;18.73;47.10;99629.19;5064941;28;20052;-72
2023/12/13 11:16:18;;;;;;;5.90;1.20;;;;;;;18.72;47.23;99622.25;5066398;28;20028;-74
2023/12/13 11:18:45;;;;;;;5.70;1.50;;;;;;;18.64;47.13;99614.28;5062824;28;20111;-74
2023/12/13 11:21:12;;;;;;;3.47;1.23;;;;;;;18.67;47.25;99617.47;5065211;28;20041;-72
2023/12/13 11:23:39;;;;;;;5.18;1.25;;;;;;;18.73;47.22;99636.28;5065067;28;20028;-72
2023/12/13 11:26:13;;;;;;;5.82;1.20;;;;;;;18.70;47.66;99623.41;5065312;28;20094;-70
2023/12/13 11:28:38;;;;;;;4.32;1.25;;;;;;;18.70;47.48;99628.69;5065425;28;20115;-70